Aérodrome :
LOGIN :

S'inscrire | Disclaimer

   EN    FR    IT 

 










Légende :    VFR   VFR Marginal   IFR   IFR Intensif   IFR Très Intensif
Visi : 
Plafond : 
>= 8 km
>= 3000ft
5 à 8 km
1000 à 3000 ft
1500m à 5 km
500 à 1000 ft
800 à 1500m
200 à 500 ft
< 800m
< 200 ft
Symboles :   Orages  Brouillard  Fortes neiges  Fortes précipitations  Vent > 20 kt
SIGMETs :   Divers  Orages  Givrage  Turbulence  Onde Orograph.  Cendres Volcan.







- Altitude de l'aérodrome : 13 ft
- Code IATA : OST


EBOS - Oostend bruges Int.

DERNIER METAR :
  • 201820Z 05005KT 7000 -RA FEW005 BKN012 03/02 Q1001 TEMPO 3000 -RADZ BKN003

METARs EXPIRÉS :
  • 201750Z 04004KT 8000 -RA SCT005 BKN012 03/02 Q1000 TEMPO 3000 -RADZ BKN003
  • 201720Z 06004KT 8000 -RA SCT005 BKN012 03/02 Q1000 TEMPO 3000 -RADZ BKN003
  • 201650Z 06003KT 020V080 7000 -RA BKN005 BKN012 04/02 Q0999 TEMPO 3000 -RADZ BKN003
  • 201620Z 10003KT 7000 -RA BKN005 BKN015 04/02 Q0999 TEMPO 3000 -RADZ BKN003

TAF TAF EBOS
Valide du 20 à 18h jusqu'au 22 à 00h UTC


201720Z 2018/2124 VRB03KT 7000 BKN015
TEMPO 2018/2023 BKN011
PROB40
TEMPO 2018/2022 3200 RA RADZ BKN006
PROB30
TEMPO 2018/2021 BKN004
BECMG 2021/2023 34014KT
BECMG 2113/2115 BKN011
BECMG 2114/2116 16012KT
PROB40
TEMPO 2115/2124 4000 RA RASN BKN005
BECMG 2122/2124 23008KT
Pas de NOTAMs connus pour ce terrain.
1 SIGMET publié pour la FIR Brussels (EBBU) :
 
Turbulence forte
EBBU SIGMET 05 VALID 201800/202100 EBBR
EBBU BRUSSELS FIR SEV TURB FCST NE OF LINE N5130 E00230 - N4930 E00615 FL180/310 MOV NE NC=



MET'MAP, la Météo Aéronautique d'un coup d'oeil ! - Copyright ORBIFLY Décembre 2007 - Disclaimer

ORBIFLY MET'MAP TEAM :

Programmation & Développement : Alexandra Zaïnal
Conception & Développement : Baudouin d'Aumeries
Co-Programmation & Développement : Marc-Olivier Méhu
Soutien technique & logistique : Manuel Goepfert

Contact : metmap@orbifly.com




SOURCES & CREDITS :

   NOAA